This demonstration page uses our WeatherBlox Daily Observations layout. Learn more.

38.88101, -77.10428

Hourly Observations for April 6, 2018

Temp ( °F °C ) Dew Point ( °F °C ) Humidity (%) Winds ( mph kmh ) Pressure ( in mb ) Visibility ( mi km ) Precip ( " mm )
12:52 am 00:52 Cloudy 46 7.8 28 -2.2 50 50 S 5 7 30.14 1021 10 16.0934 0 0
1:52 am 01:52 Cloudy 46 7.8 30 -1.1 54 54 SE 7 11 30.13 1020 10 16.0934 0 0
2:52 am 02:52 Cloudy 45 7.2 32 0 61 61 NE 7 11 30.11 1020 10 16.0934 0 0
3:52 am 03:52 Cloudy 45 7.2 33 0.6 63 63 ESE 7 11 30.1 1019 10 16.0934 0 0
4:52 am 04:52 Cloudy 45 7.2 35 1.7 68 68 SSE 9 15 30.08 1019 10 16.0934 0 0
5:52 am 05:52 Cloudy 45 7.2 37 2.8 74 74 SSE 5 7 30.06 1018 10 16.0934 0 0
6:52 am 06:52 Cloudy 45 7.2 38 3.3 77 77 SE 5 7 30.04 1017 10 16.0934 0 0
7:52 am 07:52 Cloudy 45 7.2 37 2.8 74 74 SSE 9 15 30.03 1017 10 16.0934 0 0
8:52 am 08:52 Mostly Cloudy 47 8.3 34 1.1 61 61 SSW 10 17 30 1016 10 16.0934 0 0
9:52 am 09:52 Cloudy 48 8.9 31 -0.6 52 52 SSW 13 20 29.98 1015 10 16.0934 0 0
10:52 am 10:52 Cloudy 50 10 30 -1.1 46 46 SSW 15 24 29.95 1014 10 16.0934 0 0
11:52 am 11:52 Cloudy 55 12.8 32 0 42 42 S 12 19 29.93 1014 10 16.0934 0 0
12:52 pm 12:52 Cloudy 58 14.4 33 0.6 39 39 SSW 15 24 29.9 1012 10 16.0934 0 0
1:52 pm 13:52 Mostly Cloudy 62 16.7 35 1.7 37 37 S 14 22 29.85 1011 10 16.0934 0 0
2:52 pm 14:52 Mostly Cloudy 70 21.1 28 -2.2 21 21 SSW 24 39 29.8 1009 10 16.0934 0 0
3:52 pm 15:52 Mostly Cloudy 71 21.7 26 -3.3 19 19 SSW 28 44 29.75 1007 10 16.0934 0 0
4:52 pm 16:52 Mostly Cloudy 72 22.2 27 -2.8 19 19 S 21 33 29.73 1007 10 16.0934 0 0
5:52 pm 17:52 Mostly Cloudy 69 20.6 29 -1.7 22 22 SSW 20 31 29.72 1006 10 16.0934 0 0
6:52 pm 18:52 Cloudy 69 20.6 28 -2.2 22 22 SSW 18 30 29.7 1006 10 16.0934 0 0
7:52 pm 19:52 Cloudy 68 20 29 -1.7 23 23 SSW 13 20 29.69 1005 10 16.0934 0 0
8:52 pm 20:52 Cloudy 65 18.3 32 0 29 29 SSW 9 15 29.69 1005 10 16.0934 0 0
9:52 pm 21:52 Cloudy 66 18.9 34 1.1 30 30 SSW 13 20 29.69 1006 10 16.0934 0 0
10:52 pm 22:52 Cloudy 67 19.4 35 1.7 31 31 SSW 15 24 29.68 1005 10 16.0934 0 0
11:52 pm 23:52 Cloudy 67 19.4 36 2.2 32 32 SSW 16 26 29.68 1005 10 16.0934 0 0

Powered by AerisWeather